sensor_id;sensor_type;location;lat;lon;timestamp;pressure;altitude;pressure_sealevel;temperature;humidity
54876;BME280;40764;48.472;8.166;2024-02-23T00:01:52;96386.22;;;7.56;90.46
54876;BME280;40764;48.472;8.166;2024-02-23T00:07:56;96421.25;;;7.84;89.52
54876;BME280;40764;48.472;8.166;2024-02-23T00:13:56;96431.16;;;7.62;89.94
54876;BME280;40764;48.472;8.166;2024-02-23T00:19:56;96413.25;;;7.78;88.27
54876;BME280;40764;48.472;8.166;2024-02-23T00:25:57;96394.38;;;7.82;88.43
54876;BME280;40764;48.472;8.166;2024-02-23T00:31:59;96407.47;;;7.71;86.75
54876;BME280;40764;48.472;8.166;2024-02-23T00:37:59;96427.50;;;7.93;88.01
54876;BME280;40764;48.472;8.166;2024-02-23T00:43:59;96421.06;;;8.06;88.09
54876;BME280;40764;48.472;8.166;2024-02-23T00:50:00;96407.31;;;8.02;85.85
54876;BME280;40764;48.472;8.166;2024-02-23T00:56:00;96404.75;;;7.97;85.69
54876;BME280;40764;48.472;8.166;2024-02-23T01:02:01;96408.13;;;7.86;86.83
54876;BME280;40764;48.472;8.166;2024-02-23T01:08:01;96433.88;;;7.54;88.18
54876;BME280;40764;48.472;8.166;2024-02-23T01:14:01;96438.38;;;7.58;90.29
54876;BME280;40764;48.472;8.166;2024-02-23T01:20:02;96454.22;;;7.82;88.67
54876;BME280;40764;48.472;8.166;2024-02-23T01:26:05;96471.41;;;7.34;85.31
54876;BME280;40764;48.472;8.166;2024-02-23T01:32:05;96473.25;;;7.65;84.50
54876;BME280;40764;48.472;8.166;2024-02-23T01:38:06;96473.06;;;7.61;82.83
54876;BME280;40764;48.472;8.166;2024-02-23T01:44:06;96462.69;;;7.63;82.90
54876;BME280;40764;48.472;8.166;2024-02-23T01:50:07;96472.06;;;7.40;82.83
54876;BME280;40764;48.472;8.166;2024-02-23T01:56:08;96479.72;;;7.29;83.75
54876;BME280;40764;48.472;8.166;2024-02-23T02:02:09;96490.44;;;7.34;82.45
54876;BME280;40764;48.472;8.166;2024-02-23T02:08:10;96482.59;;;7.33;82.28
54876;BME280;40764;48.472;8.166;2024-02-23T02:14:11;96485.00;;;7.26;79.08
54876;BME280;40764;48.472;8.166;2024-02-23T02:20:12;96484.38;;;7.37;77.17
54876;BME280;40764;48.472;8.166;2024-02-23T02:26:16;96471.50;;;7.12;77.28
54876;BME280;40764;48.472;8.166;2024-02-23T02:32:16;96466.44;;;7.28;77.06
54876;BME280;40764;48.472;8.166;2024-02-23T02:38:17;96485.31;;;7.24;76.64
54876;BME280;40764;48.472;8.166;2024-02-23T02:44:17;96469.19;;;7.45;76.77
54876;BME280;40764;48.472;8.166;2024-02-23T02:50:20;96468.41;;;7.44;76.93
54876;BME280;40764;48.472;8.166;2024-02-23T02:56:20;96465.66;;;7.36;76.21
54876;BME280;40764;48.472;8.166;2024-02-23T03:02:20;96455.13;;;7.52;77.20
54876;BME280;40764;48.472;8.166;2024-02-23T03:08:21;96454.78;;;7.27;78.03
54876;BME280;40764;48.472;8.166;2024-02-23T03:14:21;96440.03;;;7.20;79.16
54876;BME280;40764;48.472;8.166;2024-02-23T03:20:21;96446.47;;;7.32;79.99
54876;BME280;40764;48.472;8.166;2024-02-23T03:26:22;96441.63;;;7.21;82.20
54876;BME280;40764;48.472;8.166;2024-02-23T03:32:22;96437.78;;;7.22;84.17
54876;BME280;40764;48.472;8.166;2024-02-23T03:38:22;96457.63;;;7.22;83.47
54876;BME280;40764;48.472;8.166;2024-02-23T03:44:23;96446.75;;;6.74;86.80
54876;BME280;40764;48.472;8.166;2024-02-23T03:50:23;96453.34;;;6.50;90.62
54876;BME280;40764;48.472;8.166;2024-02-23T03:56:23;96448.19;;;6.40;91.89
54876;BME280;40764;48.472;8.166;2024-02-23T04:02:24;96446.94;;;6.24;93.75
54876;BME280;40764;48.472;8.166;2024-02-23T04:08:24;96451.66;;;6.10;94.86
54876;BME280;40764;48.472;8.166;2024-02-23T04:14:24;96445.84;;;6.25;94.88
54876;BME280;40764;48.472;8.166;2024-02-23T04:20:25;96441.13;;;6.08;95.35
54876;BME280;40764;48.472;8.166;2024-02-23T04:26:25;96446.22;;;6.10;95.12
54876;BME280;40764;48.472;8.166;2024-02-23T04:32:25;96450.72;;;6.37;93.63
54876;BME280;40764;48.472;8.166;2024-02-23T04:38:26;96437.16;;;6.14;94.29
54876;BME280;40764;48.472;8.166;2024-02-23T04:44:26;96445.88;;;6.34;91.92
54876;BME280;40764;48.472;8.166;2024-02-23T04:50:26;96444.50;;;6.36;93.69
54876;BME280;40764;48.472;8.166;2024-02-23T04:56:27;96419.34;;;6.00;95.51
54876;BME280;40764;48.472;8.166;2024-02-23T05:02:27;96431.47;;;6.25;95.91
54876;BME280;40764;48.472;8.166;2024-02-23T05:08:33;96441.34;;;6.20;95.16
54876;BME280;40764;48.472;8.166;2024-02-23T05:14:34;96445.72;;;6.61;91.86
54876;BME280;40764;48.472;8.166;2024-02-23T05:20:34;96442.19;;;6.61;88.67
54876;BME280;40764;48.472;8.166;2024-02-23T05:26:34;96451.63;;;6.63;88.37
54876;BME280;40764;48.472;8.166;2024-02-23T05:32:35;96451.31;;;6.65;86.29
54876;BME280;40764;48.472;8.166;2024-02-23T05:38:35;96449.78;;;6.72;86.71
54876;BME280;40764;48.472;8.166;2024-02-23T05:44:35;96449.28;;;6.70;89.17
54876;BME280;40764;48.472;8.166;2024-02-23T05:50:35;96444.88;;;6.52;90.09
54876;BME280;40764;48.472;8.166;2024-02-23T05:56:36;96451.00;;;6.35;92.28
54876;BME280;40764;48.472;8.166;2024-02-23T06:02:37;96454.81;;;6.34;91.87
54876;BME280;40764;48.472;8.166;2024-02-23T06:08:38;96469.84;;;6.63;93.01
54876;BME280;40764;48.472;8.166;2024-02-23T06:14:38;96469.75;;;6.45;91.28
54876;BME280;40764;48.472;8.166;2024-02-23T06:20:38;96461.13;;;6.43;89.41
54876;BME280;40764;48.472;8.166;2024-02-23T06:26:39;96448.09;;;6.32;88.95
54876;BME280;40764;48.472;8.166;2024-02-23T06:32:39;96445.22;;;6.06;89.94
54876;BME280;40764;48.472;8.166;2024-02-23T06:38:40;96443.75;;;6.00;89.16
54876;BME280;40764;48.472;8.166;2024-02-23T06:44:40;96443.00;;;5.85;88.67
54876;BME280;40764;48.472;8.166;2024-02-23T06:50:40;96444.63;;;5.73;88.75
54876;BME280;40764;48.472;8.166;2024-02-23T06:56:41;96454.72;;;5.45;89.89
54876;BME280;40764;48.472;8.166;2024-02-23T07:02:41;96457.75;;;5.43;89.82
54876;BME280;40764;48.472;8.166;2024-02-23T07:08:41;96465.13;;;5.65;85.92
54876;BME280;40764;48.472;8.166;2024-02-23T07:14:42;96470.28;;;5.89;84.87
54876;BME280;40764;48.472;8.166;2024-02-23T07:20:42;96493.59;;;5.54;88.21
54876;BME280;40764;48.472;8.166;2024-02-23T07:26:42;96478.00;;;5.59;88.32
54876;BME280;40764;48.472;8.166;2024-02-23T07:32:43;96487.00;;;5.69;85.38
54876;BME280;40764;48.472;8.166;2024-02-23T07:38:44;96489.16;;;6.08;84.44
54876;BME280;40764;48.472;8.166;2024-02-23T07:44:45;96492.78;;;6.26;83.23
54876;BME280;40764;48.472;8.166;2024-02-23T07:50:45;96503.56;;;6.39;82.49
54876;BME280;40764;48.472;8.166;2024-02-23T07:56:45;96491.72;;;6.35;82.94
54876;BME280;40764;48.472;8.166;2024-02-23T08:02:46;96493.75;;;6.52;83.25
54876;BME280;40764;48.472;8.166;2024-02-23T08:08:46;96499.84;;;6.58;84.22
54876;BME280;40764;48.472;8.166;2024-02-23T08:14:46;96497.09;;;6.80;84.23
54876;BME280;40764;48.472;8.166;2024-02-23T08:20:49;96488.72;;;6.99;81.96
54876;BME280;40764;48.472;8.166;2024-02-23T08:26:49;96478.03;;;7.02;82.40
54876;BME280;40764;48.472;8.166;2024-02-23T08:32:49;96475.59;;;7.49;81.29
54876;BME280;40764;48.472;8.166;2024-02-23T08:38:50;96462.78;;;7.50;79.39
54876;BME280;40764;48.472;8.166;2024-02-23T08:44:50;96445.06;;;8.30;76.22
54876;BME280;40764;48.472;8.166;2024-02-23T08:50:51;96455.81;;;8.44;75.61
54876;BME280;40764;48.472;8.166;2024-02-23T08:56:51;96443.00;;;8.35;76.79
54876;BME280;40764;48.472;8.166;2024-02-23T09:02:51;96448.75;;;8.25;72.16
54876;BME280;40764;48.472;8.166;2024-02-23T09:08:52;96450.38;;;8.44;70.45
54876;BME280;40764;48.472;8.166;2024-02-23T09:14:52;96435.25;;;8.55;68.71
54876;BME280;40764;48.472;8.166;2024-02-23T09:20:52;96436.03;;;8.73;67.79
54876;BME280;40764;48.472;8.166;2024-02-23T09:26:52;96430.03;;;8.88;67.58
54876;BME280;40764;48.472;8.166;2024-02-23T09:32:53;96418.63;;;9.24;66.28
54876;BME280;40764;48.472;8.166;2024-02-23T09:38:54;96411.72;;;8.97;63.96
54876;BME280;40764;48.472;8.166;2024-02-23T09:44:58;96404.19;;;9.23;66.84
54876;BME280;40764;48.472;8.166;2024-02-23T09:51:00;96404.34;;;9.27;65.87
54876;BME280;40764;48.472;8.166;2024-02-23T09:57:02;96403.16;;;9.37;64.83
54876;BME280;40764;48.472;8.166;2024-02-23T10:03:06;96412.22;;;9.49;62.78
54876;BME280;40764;48.472;8.166;2024-02-23T10:09:06;96403.69;;;9.51;61.44
54876;BME280;40764;48.472;8.166;2024-02-23T10:15:07;96404.72;;;9.67;61.64
54876;BME280;40764;48.472;8.166;2024-02-23T10:21:08;96407.56;;;9.71;58.39
54876;BME280;40764;48.472;8.166;2024-02-23T10:27:08;96399.63;;;10.19;59.72
54876;BME280;40764;48.472;8.166;2024-02-23T10:33:10;96396.53;;;10.42;59.18
54876;BME280;40764;48.472;8.166;2024-02-23T10:39:15;96393.38;;;10.52;57.65
54876;BME280;40764;48.472;8.166;2024-02-23T10:45:17;96386.25;;;10.84;55.88
54876;BME280;40764;48.472;8.166;2024-02-23T10:51:18;96392.38;;;10.81;57.65
54876;BME280;40764;48.472;8.166;2024-02-23T10:57:18;96390.09;;;10.71;55.16
54876;BME280;40764;48.472;8.166;2024-02-23T11:03:18;96391.13;;;10.78;56.18
54876;BME280;40764;48.472;8.166;2024-02-23T11:09:23;96392.63;;;10.88;55.51
54876;BME280;40764;48.472;8.166;2024-02-23T11:15:30;96387.13;;;10.64;53.21
54876;BME280;40764;48.472;8.166;2024-02-23T11:21:37;96390.25;;;10.99;54.78
54876;BME280;40764;48.472;8.166;2024-02-23T11:27:38;96395.09;;;11.54;54.21
54876;BME280;40764;48.472;8.166;2024-02-23T11:34:08;96395.69;;;10.74;53.19
54876;BME280;40764;48.472;8.166;2024-02-23T11:40:11;96393.53;;;11.04;53.01
54876;BME280;40764;48.472;8.166;2024-02-23T11:46:12;96389.09;;;11.00;53.47
54876;BME280;40764;48.472;8.166;2024-02-23T11:52:14;96385.44;;;11.20;53.37
54876;BME280;40764;48.472;8.166;2024-02-23T11:58:15;96381.31;;;11.26;53.28
54876;BME280;40764;48.472;8.166;2024-02-23T12:04:15;96386.00;;;11.26;52.33
54876;BME280;40764;48.472;8.166;2024-02-23T12:10:18;96371.22;;;11.02;53.40
54876;BME280;40764;48.472;8.166;2024-02-23T12:16:20;96351.38;;;11.17;51.87
54876;BME280;40764;48.472;8.166;2024-02-23T12:22:24;96356.75;;;11.78;50.39
54876;BME280;40764;48.472;8.166;2024-02-23T12:28:25;96353.19;;;11.90;51.14
54876;BME280;40764;48.472;8.166;2024-02-23T12:34:25;96353.13;;;12.02;50.25
54876;BME280;40764;48.472;8.166;2024-02-23T12:40:25;96348.81;;;12.61;50.67
54876;BME280;40764;48.472;8.166;2024-02-23T12:46:26;96347.72;;;12.34;49.57
54876;BME280;40764;48.472;8.166;2024-02-23T12:52:26;96351.44;;;11.98;50.09
54876;BME280;40764;48.472;8.166;2024-02-23T12:58:27;96359.63;;;11.58;50.31
54876;BME280;40764;48.472;8.166;2024-02-23T13:04:28;96374.50;;;11.32;53.15
54876;BME280;40764;48.472;8.166;2024-02-23T13:10:28;96381.56;;;11.21;54.62
54876;BME280;40764;48.472;8.166;2024-02-23T13:16:29;96382.09;;;10.41;61.11
54876;BME280;40764;48.472;8.166;2024-02-23T13:22:31;96407.38;;;9.97;62.75
54876;BME280;40764;48.472;8.166;2024-02-23T13:28:31;96390.44;;;9.82;69.27
54876;BME280;40764;48.472;8.166;2024-02-23T13:34:31;96355.47;;;10.17;68.59
54876;BME280;40764;48.472;8.166;2024-02-23T13:40:32;96359.06;;;9.76;69.01
54876;BME280;40764;48.472;8.166;2024-02-23T13:46:35;96354.16;;;10.36;65.90
54876;BME280;40764;48.472;8.166;2024-02-23T13:52:37;96333.56;;;10.38;64.90
54876;BME280;40764;48.472;8.166;2024-02-23T13:58:38;96324.97;;;10.15;62.57
54876;BME280;40764;48.472;8.166;2024-02-23T14:04:38;96312.06;;;10.37;60.70
54876;BME280;40764;48.472;8.166;2024-02-23T14:10:39;96320.06;;;10.78;61.39
54876;BME280;40764;48.472;8.166;2024-02-23T14:16:40;96313.13;;;11.05;60.97
54876;BME280;40764;48.472;8.166;2024-02-23T14:22:41;96326.69;;;10.77;60.26
54876;BME280;40764;48.472;8.166;2024-02-23T14:28:41;96317.56;;;11.10;59.51
54876;BME280;40764;48.472;8.166;2024-02-23T14:34:41;96307.41;;;10.98;61.71
54876;BME280;40764;48.472;8.166;2024-02-23T14:40:42;96289.97;;;11.55;60.61
54876;BME280;40764;48.472;8.166;2024-02-23T14:46:43;96301.00;;;11.31;59.84
54876;BME280;40764;48.472;8.166;2024-02-23T14:52:43;96295.28;;;11.36;59.61
54876;BME280;40764;48.472;8.166;2024-02-23T14:58:44;96290.47;;;11.73;58.01
54876;BME280;40764;48.472;8.166;2024-02-23T15:04:44;96281.34;;;12.25;54.86
54876;BME280;40764;48.472;8.166;2024-02-23T15:10:45;96280.53;;;11.00;62.99
54876;BME280;40764;48.472;8.166;2024-02-23T15:16:46;96269.34;;;11.17;66.78
54876;BME280;40764;48.472;8.166;2024-02-23T15:22:46;96263.75;;;11.82;60.79
54876;BME280;40764;48.472;8.166;2024-02-23T15:28:52;96257.72;;;12.67;61.40
54876;BME280;40764;48.472;8.166;2024-02-23T15:34:53;96253.56;;;12.42;63.00
54876;BME280;40764;48.472;8.166;2024-02-23T15:40:54;96239.53;;;11.96;63.18
54876;BME280;40764;48.472;8.166;2024-02-23T15:46:54;96252.81;;;12.26;61.99
54876;BME280;40764;48.472;8.166;2024-02-23T15:52:54;96241.97;;;11.30;66.04
54876;BME280;40764;48.472;8.166;2024-02-23T15:58:58;96245.03;;;10.64;68.75
54876;BME280;40764;48.472;8.166;2024-02-23T16:05:00;96250.69;;;9.65;72.29
54876;BME280;40764;48.472;8.166;2024-02-23T16:11:00;96261.69;;;8.93;77.18
54876;BME280;40764;48.472;8.166;2024-02-23T16:17:00;96261.31;;;8.53;79.25
54876;BME280;40764;48.472;8.166;2024-02-23T16:23:03;96251.78;;;8.89;76.04
54876;BME280;40764;48.472;8.166;2024-02-23T16:29:07;96260.31;;;8.20;80.91
54876;BME280;40764;48.472;8.166;2024-02-23T16:35:07;96257.88;;;7.89;81.73
54876;BME280;40764;48.472;8.166;2024-02-23T16:41:10;96263.81;;;7.82;82.63
54876;BME280;40764;48.472;8.166;2024-02-23T16:47:10;96262.16;;;7.98;81.00
54876;BME280;40764;48.472;8.166;2024-02-23T16:53:10;96278.25;;;7.39;83.71
54876;BME280;40764;48.472;8.166;2024-02-23T16:59:11;96275.38;;;6.84;85.38
54876;BME280;40764;48.472;8.166;2024-02-23T17:05:11;96278.72;;;6.81;87.14
54876;BME280;40764;48.472;8.166;2024-02-23T17:11:11;96282.97;;;6.56;88.24
54876;BME280;40764;48.472;8.166;2024-02-23T17:17:12;96278.00;;;6.41;89.13
54876;BME280;40764;48.472;8.166;2024-02-23T17:23:13;96294.31;;;6.10;90.86
54876;BME280;40764;48.472;8.166;2024-02-23T17:29:13;96296.56;;;6.16;89.81
54876;BME280;40764;48.472;8.166;2024-02-23T17:35:14;96312.41;;;5.92;91.96
54876;BME280;40764;48.472;8.166;2024-02-23T17:41:14;96316.75;;;6.02;91.21
54876;BME280;40764;48.472;8.166;2024-02-23T17:47:15;96317.03;;;5.92;90.80
54876;BME280;40764;48.472;8.166;2024-02-23T17:53:15;96312.16;;;5.80;90.35
54876;BME280;40764;48.472;8.166;2024-02-23T17:59:15;96316.59;;;5.98;89.85
54876;BME280;40764;48.472;8.166;2024-02-23T18:05:16;96312.19;;;5.88;90.65
54876;BME280;40764;48.472;8.166;2024-02-23T18:11:16;96322.00;;;5.76;90.12
54876;BME280;40764;48.472;8.166;2024-02-23T18:17:17;96326.50;;;5.36;91.94
54876;BME280;40764;48.472;8.166;2024-02-23T18:23:17;96337.50;;;5.17;94.48
54876;BME280;40764;48.472;8.166;2024-02-23T18:29:17;96338.03;;;5.05;96.27
54876;BME280;40764;48.472;8.166;2024-02-23T18:35:18;96336.19;;;4.92;95.51
54876;BME280;40764;48.472;8.166;2024-02-23T18:41:18;96336.59;;;4.72;96.24
54876;BME280;40764;48.472;8.166;2024-02-23T18:47:19;96329.69;;;4.65;96.11
54876;BME280;40764;48.472;8.166;2024-02-23T18:53:19;96335.59;;;4.54;95.87
54876;BME280;40764;48.472;8.166;2024-02-23T18:59:20;96337.81;;;4.65;94.44
54876;BME280;40764;48.472;8.166;2024-02-23T19:05:20;96333.41;;;4.70;94.48
54876;BME280;40764;48.472;8.166;2024-02-23T19:11:21;96330.88;;;4.59;94.53
54876;BME280;40764;48.472;8.166;2024-02-23T19:17:22;96340.63;;;4.47;95.44
54876;BME280;40764;48.472;8.166;2024-02-23T19:23:22;96337.81;;;4.24;95.86
54876;BME280;40764;48.472;8.166;2024-02-23T19:29:22;96344.31;;;4.10;96.95
54876;BME280;40764;48.472;8.166;2024-02-23T19:35:23;96341.50;;;4.28;96.10
54876;BME280;40764;48.472;8.166;2024-02-23T19:41:24;96336.00;;;4.20;96.18
54876;BME280;40764;48.472;8.166;2024-02-23T19:47:24;96339.56;;;3.88;95.38
54876;BME280;40764;48.472;8.166;2024-02-23T19:53:25;96329.06;;;4.00;96.56
54876;BME280;40764;48.472;8.166;2024-02-23T19:59:25;96339.41;;;4.25;95.26
54876;BME280;40764;48.472;8.166;2024-02-23T20:05:25;96341.59;;;4.23;95.69
54876;BME280;40764;48.472;8.166;2024-02-23T20:11:26;96345.06;;;3.83;96.57
54876;BME280;40764;48.472;8.166;2024-02-23T20:17:26;96337.16;;;3.54;99.37
54876;BME280;40764;48.472;8.166;2024-02-23T20:23:29;96346.06;;;3.87;97.89
54876;BME280;40764;48.472;8.166;2024-02-23T20:29:29;96342.34;;;3.83;96.70
54876;BME280;40764;48.472;8.166;2024-02-23T20:35:30;96333.81;;;3.76;97.85
54876;BME280;40764;48.472;8.166;2024-02-23T20:41:30;96346.25;;;3.90;97.12
54876;BME280;40764;48.472;8.166;2024-02-23T20:47:30;96344.63;;;3.76;96.83
54876;BME280;40764;48.472;8.166;2024-02-23T20:53:31;96364.91;;;3.59;96.84
54876;BME280;40764;48.472;8.166;2024-02-23T20:59:31;96364.69;;;3.56;97.03
54876;BME280;40764;48.472;8.166;2024-02-23T21:05:31;96363.72;;;3.65;96.71
54876;BME280;40764;48.472;8.166;2024-02-23T21:11:34;96362.28;;;3.54;97.17
54876;BME280;40764;48.472;8.166;2024-02-23T21:17:34;96367.81;;;3.63;96.73
54876;BME280;40764;48.472;8.166;2024-02-23T21:23:34;96385.19;;;3.57;97.15
54876;BME280;40764;48.472;8.166;2024-02-23T21:29:35;96389.50;;;3.58;97.43
54876;BME280;40764;48.472;8.166;2024-02-23T21:35:35;96384.44;;;3.70;99.02
54876;BME280;40764;48.472;8.166;2024-02-23T21:41:36;96390.13;;;3.87;96.22
54876;BME280;40764;48.472;8.166;2024-02-23T21:47:36;96413.38;;;4.02;96.87
54876;BME280;40764;48.472;8.166;2024-02-23T21:53:37;96427.06;;;3.92;99.11
54876;BME280;40764;48.472;8.166;2024-02-23T21:59:38;96430.28;;;3.94;98.37
54876;BME280;40764;48.472;8.166;2024-02-23T22:05:38;96418.16;;;3.91;98.85
54876;BME280;40764;48.472;8.166;2024-02-23T22:11:38;96399.63;;;3.85;99.85
54876;BME280;40764;48.472;8.166;2024-02-23T22:17:38;96410.31;;;4.22;98.58
54876;BME280;40764;48.472;8.166;2024-02-23T22:23:39;96420.31;;;4.08;98.87
54876;BME280;40764;48.472;8.166;2024-02-23T22:29:40;96424.00;;;4.58;98.48
54876;BME280;40764;48.472;8.166;2024-02-23T22:35:41;96417.56;;;4.54;98.48
54876;BME280;40764;48.472;8.166;2024-02-23T22:41:41;96429.09;;;4.60;98.25
54876;BME280;40764;48.472;8.166;2024-02-23T22:47:41;96424.41;;;4.38;99.26
54876;BME280;40764;48.472;8.166;2024-02-23T22:53:41;96428.25;;;4.92;95.91
54876;BME280;40764;48.472;8.166;2024-02-23T22:59:42;96416.69;;;4.59;97.52
54876;BME280;40764;48.472;8.166;2024-02-23T23:05:42;96433.34;;;4.80;99.10
54876;BME280;40764;48.472;8.166;2024-02-23T23:11:42;96426.63;;;4.77;97.23
54876;BME280;40764;48.472;8.166;2024-02-23T23:17:44;96426.69;;;4.58;97.89
54876;BME280;40764;48.472;8.166;2024-02-23T23:23:45;96431.00;;;4.46;100.00
54876;BME280;40764;48.472;8.166;2024-02-23T23:29:46;96432.13;;;4.45;99.96
54876;BME280;40764;48.472;8.166;2024-02-23T23:35:46;96423.25;;;4.25;100.00
54876;BME280;40764;48.472;8.166;2024-02-23T23:41:46;96428.25;;;4.32;100.00
54876;BME280;40764;48.472;8.166;2024-02-23T23:47:50;96428.53;;;4.63;98.82
54876;BME280;40764;48.472;8.166;2024-02-23T23:53:50;96429.50;;;4.40;99.80
54876;BME280;40764;48.472;8.166;2024-02-23T23:59:55;96435.81;;;4.49;100.00
